sensor_id;sensor_type;location;lat;lon;timestamp;P1;durP1;ratioP1;P2;durP2;ratioP2
10432;SDS011;5263;48.680;9.004;2024-03-23T00:54:21;5.77;;;3.70;;
10432;SDS011;5263;48.680;9.004;2024-03-23T00:56:47;8.03;;;3.70;;
10432;SDS011;5263;48.680;9.004;2024-03-23T00:59:12;7.47;;;3.33;;
10432;SDS011;5263;48.680;9.004;2024-03-23T01:01:38;10.63;;;3.90;;
10432;SDS011;5263;48.680;9.004;2024-03-23T01:04:04;4.23;;;3.00;;
10432;SDS011;5263;48.680;9.004;2024-03-23T01:06:30;7.90;;;2.87;;
10432;SDS011;5263;48.680;9.004;2024-03-23T01:08:55;3.93;;;3.00;;
10432;SDS011;5263;48.680;9.004;2024-03-23T01:11:21;8.63;;;3.23;;
10432;SDS011;5263;48.680;9.004;2024-03-23T01:13:46;3.07;;;2.27;;
10432;SDS011;5263;48.680;9.004;2024-03-23T01:16:12;5.53;;;2.70;;
10432;SDS011;5263;48.680;9.004;2024-03-23T01:18:37;6.47;;;3.53;;
10432;SDS011;5263;48.680;9.004;2024-03-23T01:21:03;11.17;;;3.57;;
10432;SDS011;5263;48.680;9.004;2024-03-23T01:23:28;6.30;;;2.50;;
10432;SDS011;5263;48.680;9.004;2024-03-23T01:25:54;3.10;;;2.10;;
10432;SDS011;5263;48.680;9.004;2024-03-23T01:28:20;8.70;;;3.03;;
10432;SDS011;5263;48.680;9.004;2024-03-23T01:30:47;4.30;;;2.93;;
10432;SDS011;5263;48.680;9.004;2024-03-23T01:33:12;4.90;;;2.57;;
10432;SDS011;5263;48.680;9.004;2024-03-23T01:35:38;4.23;;;3.30;;
10432;SDS011;5263;48.680;9.004;2024-03-23T01:38:04;10.53;;;3.47;;
10432;SDS011;5263;48.680;9.004;2024-03-23T01:40:29;7.73;;;3.40;;
10432;SDS011;5263;48.680;9.004;2024-03-23T01:42:59;4.17;;;3.40;;
10432;SDS011;5263;48.680;9.004;2024-03-23T01:45:28;9.47;;;2.63;;
10432;SDS011;5263;48.680;9.004;2024-03-23T01:47:55;4.73;;;2.73;;
10432;SDS011;5263;48.680;9.004;2024-03-23T01:50:20;4.53;;;2.23;;
10432;SDS011;5263;48.680;9.004;2024-03-23T01:52:46;5.77;;;2.97;;
10432;SDS011;5263;48.680;9.004;2024-03-23T01:55:13;8.23;;;2.70;;
10432;SDS011;5263;48.680;9.004;2024-03-23T01:57:38;3.17;;;2.07;;
10432;SDS011;5263;48.680;9.004;2024-03-23T02:00:04;7.43;;;1.93;;
10432;SDS011;5263;48.680;9.004;2024-03-23T02:02:31;3.60;;;1.40;;
10432;SDS011;5263;48.680;9.004;2024-03-23T02:04:57;1.30;;;0.97;;
10432;SDS011;5263;48.680;9.004;2024-03-23T02:07:22;2.03;;;1.30;;
10432;SDS011;5263;48.680;9.004;2024-03-23T02:09:49;3.13;;;1.40;;
10432;SDS011;5263;48.680;9.004;2024-03-23T02:12:18;1.50;;;1.03;;
10432;SDS011;5263;48.680;9.004;2024-03-23T02:14:44;3.13;;;1.30;;
10432;SDS011;5263;48.680;9.004;2024-03-23T02:17:10;1.07;;;1.07;;
10432;SDS011;5263;48.680;9.004;2024-03-23T02:19:35;1.07;;;0.90;;
10432;SDS011;5263;48.680;9.004;2024-03-23T02:22:01;1.70;;;0.87;;
10432;SDS011;5263;48.680;9.004;2024-03-23T02:24:28;0.97;;;0.90;;
10432;SDS011;5263;48.680;9.004;2024-03-23T02:26:54;1.43;;;0.93;;
10432;SDS011;5263;48.680;9.004;2024-03-23T02:29:20;4.43;;;1.10;;
10432;SDS011;5263;48.680;9.004;2024-03-23T02:31:45;2.80;;;1.20;;
10432;SDS011;5263;48.680;9.004;2024-03-23T02:34:11;2.90;;;1.23;;
10432;SDS011;5263;48.680;9.004;2024-03-23T02:36:36;2.97;;;1.10;;
10432;SDS011;5263;48.680;9.004;2024-03-23T02:39:02;3.33;;;1.00;;
10432;SDS011;5263;48.680;9.004;2024-03-23T02:41:28;1.00;;;1.00;;
10432;SDS011;5263;48.680;9.004;2024-03-23T02:43:53;2.03;;;1.10;;
10432;SDS011;5263;48.680;9.004;2024-03-23T02:46:19;4.20;;;1.27;;
10432;SDS011;5263;48.680;9.004;2024-03-23T02:48:44;1.27;;;1.17;;
10432;SDS011;5263;48.680;9.004;2024-03-23T02:51:10;2.17;;;1.37;;
10432;SDS011;5263;48.680;9.004;2024-03-23T02:53:35;1.13;;;1.03;;
10432;SDS011;5263;48.680;9.004;2024-03-23T02:56:01;2.50;;;1.10;;
10432;SDS011;5263;48.680;9.004;2024-03-23T02:58:26;1.57;;;0.93;;
10432;SDS011;5263;48.680;9.004;2024-03-23T03:00:52;2.23;;;0.97;;
10432;SDS011;5263;48.680;9.004;2024-03-23T03:03:17;2.93;;;0.80;;
10432;SDS011;5263;48.680;9.004;2024-03-23T03:05:43;1.90;;;1.07;;
10432;SDS011;5263;48.680;9.004;2024-03-23T03:08:08;3.20;;;1.10;;
10432;SDS011;5263;48.680;9.004;2024-03-23T03:10:34;2.13;;;0.80;;
10432;SDS011;5263;48.680;9.004;2024-03-23T03:13:01;3.63;;;1.10;;
10432;SDS011;5263;48.680;9.004;2024-03-23T03:15:27;1.30;;;1.20;;
10432;SDS011;5263;48.680;9.004;2024-03-23T03:17:53;1.10;;;1.00;;
10432;SDS011;5263;48.680;9.004;2024-03-23T03:20:18;1.57;;;1.00;;
10432;SDS011;5263;48.680;9.004;2024-03-23T03:22:44;1.73;;;1.13;;
10432;SDS011;5263;48.680;9.004;2024-03-23T03:25:09;1.63;;;0.67;;
10432;SDS011;5263;48.680;9.004;2024-03-23T03:27:35;2.37;;;1.10;;
10432;SDS011;5263;48.680;9.004;2024-03-23T03:30:00;1.10;;;0.87;;
10432;SDS011;5263;48.680;9.004;2024-03-23T03:32:30;0.93;;;0.93;;
10432;SDS011;5263;48.680;9.004;2024-03-23T03:34:56;1.37;;;0.90;;
10432;SDS011;5263;48.680;9.004;2024-03-23T03:37:21;2.80;;;1.00;;
10432;SDS011;5263;48.680;9.004;2024-03-23T03:39:47;6.57;;;0.90;;
10432;SDS011;5263;48.680;9.004;2024-03-23T03:42:12;2.50;;;1.10;;
10432;SDS011;5263;48.680;9.004;2024-03-23T03:44:38;2.37;;;0.80;;
10432;SDS011;5263;48.680;9.004;2024-03-23T03:47:04;1.10;;;1.00;;
10432;SDS011;5263;48.680;9.004;2024-03-23T03:49:30;1.47;;;1.00;;
10432;SDS011;5263;48.680;9.004;2024-03-23T03:51:56;2.47;;;1.40;;
10432;SDS011;5263;48.680;9.004;2024-03-23T03:54:22;3.80;;;1.23;;
10432;SDS011;5263;48.680;9.004;2024-03-23T03:56:47;3.10;;;1.40;;
10432;SDS011;5263;48.680;9.004;2024-03-23T03:59:13;2.40;;;1.10;;
10432;SDS011;5263;48.680;9.004;2024-03-23T04:01:39;1.43;;;1.20;;
10432;SDS011;5263;48.680;9.004;2024-03-23T04:04:05;1.63;;;1.03;;
10432;SDS011;5263;48.680;9.004;2024-03-23T04:06:31;1.80;;;1.13;;
10432;SDS011;5263;48.680;9.004;2024-03-23T04:08:58;2.83;;;1.27;;
10432;SDS011;5263;48.680;9.004;2024-03-23T04:11:23;1.10;;;1.00;;
10432;SDS011;5263;48.680;9.004;2024-03-23T04:13:49;1.87;;;1.03;;
10432;SDS011;5263;48.680;9.004;2024-03-23T04:16:24;2.13;;;1.10;;
10432;SDS011;5263;48.680;9.004;2024-03-23T04:18:51;0.90;;;0.90;;
10432;SDS011;5263;48.680;9.004;2024-03-23T04:21:17;1.20;;;0.90;;
10432;SDS011;5263;48.680;9.004;2024-03-23T04:23:42;1.70;;;1.20;;
10432;SDS011;5263;48.680;9.004;2024-03-23T04:26:08;1.47;;;1.30;;
10432;SDS011;5263;48.680;9.004;2024-03-23T04:28:33;1.77;;;1.20;;
10432;SDS011;5263;48.680;9.004;2024-03-23T04:31:03;4.40;;;1.40;;
10432;SDS011;5263;48.680;9.004;2024-03-23T04:33:29;1.30;;;1.20;;
10432;SDS011;5263;48.680;9.004;2024-03-23T04:35:54;1.27;;;1.17;;
10432;SDS011;5263;48.680;9.004;2024-03-23T04:38:20;1.50;;;1.00;;
10432;SDS011;5263;48.680;9.004;2024-03-23T04:40:53;3.50;;;1.03;;
10432;SDS011;5263;48.680;9.004;2024-03-23T04:43:23;1.53;;;1.20;;
10432;SDS011;5263;48.680;9.004;2024-03-23T04:45:48;5.07;;;1.20;;
10432;SDS011;5263;48.680;9.004;2024-03-23T04:48:14;2.20;;;1.10;;
10432;SDS011;5263;48.680;9.004;2024-03-23T04:50:40;4.10;;;1.33;;
10432;SDS011;5263;48.680;9.004;2024-03-23T04:53:06;2.80;;;1.23;;
10432;SDS011;5263;48.680;9.004;2024-03-23T04:55:32;6.37;;;1.93;;
10432;SDS011;5263;48.680;9.004;2024-03-23T04:57:57;5.27;;;2.00;;
10432;SDS011;5263;48.680;9.004;2024-03-23T05:00:23;4.27;;;2.03;;
10432;SDS011;5263;48.680;9.004;2024-03-23T05:02:48;2.23;;;2.03;;
10432;SDS011;5263;48.680;9.004;2024-03-23T05:05:14;1.93;;;1.67;;
10432;SDS011;5263;48.680;9.004;2024-03-23T05:07:40;2.67;;;2.10;;
10432;SDS011;5263;48.680;9.004;2024-03-23T05:10:06;2.50;;;2.30;;
10432;SDS011;5263;48.680;9.004;2024-03-23T05:12:36;3.33;;;2.30;;
10432;SDS011;5263;48.680;9.004;2024-03-23T05:15:02;3.53;;;2.40;;
10432;SDS011;5263;48.680;9.004;2024-03-23T05:17:29;5.93;;;2.50;;
10432;SDS011;5263;48.680;9.004;2024-03-23T05:19:54;5.57;;;2.97;;
10432;SDS011;5263;48.680;9.004;2024-03-23T05:22:20;6.53;;;3.83;;
10432;SDS011;5263;48.680;9.004;2024-03-23T05:24:45;6.20;;;4.90;;
10432;SDS011;5263;48.680;9.004;2024-03-23T05:27:11;7.33;;;6.07;;
10432;SDS011;5263;48.680;9.004;2024-03-23T05:29:37;7.23;;;5.47;;
10432;SDS011;5263;48.680;9.004;2024-03-23T05:32:03;7.80;;;6.40;;
10432;SDS011;5263;48.680;9.004;2024-03-23T05:34:28;7.87;;;7.07;;
10432;SDS011;5263;48.680;9.004;2024-03-23T05:36:54;7.87;;;7.07;;
10432;SDS011;5263;48.680;9.004;2024-03-23T05:39:20;7.93;;;7.13;;
10432;SDS011;5263;48.680;9.004;2024-03-23T05:41:47;6.90;;;5.90;;
10432;SDS011;5263;48.680;9.004;2024-03-23T05:44:13;9.60;;;7.10;;
10432;SDS011;5263;48.680;9.004;2024-03-23T05:46:40;7.37;;;6.43;;
10432;SDS011;5263;48.680;9.004;2024-03-23T05:49:06;6.70;;;6.07;;
10432;SDS011;5263;48.680;9.004;2024-03-23T05:51:31;7.67;;;6.87;;
10432;SDS011;5263;48.680;9.004;2024-03-23T05:53:57;7.00;;;6.30;;
10432;SDS011;5263;48.680;9.004;2024-03-23T05:56:22;10.13;;;5.70;;
10432;SDS011;5263;48.680;9.004;2024-03-23T05:58:48;6.47;;;5.30;;
10432;SDS011;5263;48.680;9.004;2024-03-23T06:01:13;6.10;;;5.50;;
10432;SDS011;5263;48.680;9.004;2024-03-23T06:03:39;6.80;;;6.03;;
10432;SDS011;5263;48.680;9.004;2024-03-23T06:06:05;5.90;;;4.70;;
10432;SDS011;5263;48.680;9.004;2024-03-23T06:08:35;2.13;;;1.87;;
10432;SDS011;5263;48.680;9.004;2024-03-23T06:11:01;2.80;;;2.50;;
10432;SDS011;5263;48.680;9.004;2024-03-23T06:13:26;1.87;;;1.77;;
10432;SDS011;5263;48.680;9.004;2024-03-23T06:15:54;2.60;;;1.93;;
10432;SDS011;5263;48.680;9.004;2024-03-23T06:18:20;2.23;;;1.57;;
10432;SDS011;5263;48.680;9.004;2024-03-23T06:20:46;1.30;;;1.20;;
10432;SDS011;5263;48.680;9.004;2024-03-23T06:23:11;2.50;;;2.30;;
10432;SDS011;5263;48.680;9.004;2024-03-23T06:25:38;1.33;;;1.20;;
10432;SDS011;5263;48.680;9.004;2024-03-23T06:28:03;1.13;;;0.80;;
10432;SDS011;5263;48.680;9.004;2024-03-23T06:30:29;1.67;;;0.90;;
10432;SDS011;5263;48.680;9.004;2024-03-23T06:32:56;1.37;;;0.70;;
10432;SDS011;5263;48.680;9.004;2024-03-23T06:35:22;0.30;;;0.30;;
10432;SDS011;5263;48.680;9.004;2024-03-23T06:37:48;1.23;;;0.40;;
10432;SDS011;5263;48.680;9.004;2024-03-23T06:40:13;0.73;;;0.70;;
10432;SDS011;5263;48.680;9.004;2024-03-23T06:42:39;0.67;;;0.40;;
10432;SDS011;5263;48.680;9.004;2024-03-23T06:45:05;0.50;;;0.30;;
10432;SDS011;5263;48.680;9.004;2024-03-23T06:47:31;0.60;;;0.30;;
10432;SDS011;5263;48.680;9.004;2024-03-23T06:49:57;0.40;;;0.30;;
10432;SDS011;5263;48.680;9.004;2024-03-23T06:52:24;0.93;;;0.23;;
10432;SDS011;5263;48.680;9.004;2024-03-23T06:54:49;0.70;;;0.30;;
10432;SDS011;5263;48.680;9.004;2024-03-23T06:57:15;0.77;;;0.37;;
10432;SDS011;5263;48.680;9.004;2024-03-23T06:59:40;0.83;;;0.20;;
10432;SDS011;5263;48.680;9.004;2024-03-23T07:02:06;3.60;;;0.20;;
10432;SDS011;5263;48.680;9.004;2024-03-23T07:04:33;0.10;;;0.10;;
10432;SDS011;5263;48.680;9.004;2024-03-23T07:06:59;0.10;;;0.10;;
10432;SDS011;5263;48.680;9.004;2024-03-23T07:09:26;0.13;;;0.10;;
10432;SDS011;5263;48.680;9.004;2024-03-23T07:11:58;0.57;;;0.17;;
10432;SDS011;5263;48.680;9.004;2024-03-23T07:14:24;2.93;;;0.20;;
10432;SDS011;5263;48.680;9.004;2024-03-23T07:16:50;1.07;;;0.20;;
10432;SDS011;5263;48.680;9.004;2024-03-23T07:19:16;1.50;;;0.10;;
10432;SDS011;5263;48.680;9.004;2024-03-23T07:21:43;0.10;;;0.10;;
10432;SDS011;5263;48.680;9.004;2024-03-23T07:24:09;0.30;;;0.10;;
10432;SDS011;5263;48.680;9.004;2024-03-23T07:26:34;0.00;;;0.00;;
10432;SDS011;5263;48.680;9.004;2024-03-23T07:29:00;0.00;;;0.00;;
10432;SDS011;5263;48.680;9.004;2024-03-23T07:31:26;0.00;;;0.00;;
10432;SDS011;5263;48.680;9.004;2024-03-23T07:33:51;0.10;;;0.10;;
10432;SDS011;5263;48.680;9.004;2024-03-23T07:36:17;0.93;;;0.00;;
10432;SDS011;5263;48.680;9.004;2024-03-23T07:38:43;0.10;;;0.10;;
10432;SDS011;5263;48.680;9.004;2024-03-23T07:41:15;0.00;;;0.00;;
10432;SDS011;5263;48.680;9.004;2024-03-23T07:43:45;1.20;;;0.00;;
10432;SDS011;5263;48.680;9.004;2024-03-23T07:46:12;0.00;;;0.00;;
10432;SDS011;5263;48.680;9.004;2024-03-23T07:48:38;0.97;;;0.10;;
10432;SDS011;5263;48.680;9.004;2024-03-23T07:51:08;0.10;;;0.10;;
10432;SDS011;5263;48.680;9.004;2024-03-23T07:53:35;0.00;;;0.00;;
10432;SDS011;5263;48.680;9.004;2024-03-23T07:56:02;0.03;;;0.03;;
10432;SDS011;5263;48.680;9.004;2024-03-23T07:58:30;0.00;;;0.00;;
10432;SDS011;5263;48.680;9.004;2024-03-23T08:00:56;0.00;;;0.00;;
10432;SDS011;5263;48.680;9.004;2024-03-23T08:03:28;0.00;;;0.00;;
10432;SDS011;5263;48.680;9.004;2024-03-23T08:05:53;3.03;;;0.10;;
10432;SDS011;5263;48.680;9.004;2024-03-23T08:08:19;0.10;;;0.10;;
10432;SDS011;5263;48.680;9.004;2024-03-23T08:10:48;0.00;;;0.00;;
10432;SDS011;5263;48.680;9.004;2024-03-23T08:13:14;0.17;;;0.17;;
10432;SDS011;5263;48.680;9.004;2024-03-23T08:15:40;2.20;;;0.20;;
10432;SDS011;5263;48.680;9.004;2024-03-23T08:18:06;1.03;;;0.10;;
10432;SDS011;5263;48.680;9.004;2024-03-23T08:20:31;0.10;;;0.10;;
10432;SDS011;5263;48.680;9.004;2024-03-23T08:22:57;0.10;;;0.07;;
10432;SDS011;5263;48.680;9.004;2024-03-23T08:25:22;0.10;;;0.10;;
10432;SDS011;5263;48.680;9.004;2024-03-23T08:27:48;0.40;;;0.10;;
10432;SDS011;5263;48.680;9.004;2024-03-23T08:30:14;0.60;;;0.40;;
10432;SDS011;5263;48.680;9.004;2024-03-23T08:32:39;0.80;;;0.30;;
10432;SDS011;5263;48.680;9.004;2024-03-23T08:35:05;1.67;;;0.20;;
10432;SDS011;5263;48.680;9.004;2024-03-23T08:37:31;0.23;;;0.20;;
10432;SDS011;5263;48.680;9.004;2024-03-23T08:39:57;1.03;;;0.20;;
10432;SDS011;5263;48.680;9.004;2024-03-23T08:42:24;0.40;;;0.40;;
10432;SDS011;5263;48.680;9.004;2024-03-23T08:44:49;2.27;;;0.40;;
10432;SDS011;5263;48.680;9.004;2024-03-23T08:47:15;1.50;;;0.30;;
10432;SDS011;5263;48.680;9.004;2024-03-23T08:49:41;0.50;;;0.20;;
10432;SDS011;5263;48.680;9.004;2024-03-23T08:52:07;1.27;;;0.50;;
10432;SDS011;5263;48.680;9.004;2024-03-23T08:54:33;1.70;;;0.53;;
10432;SDS011;5263;48.680;9.004;2024-03-23T08:56:59;1.13;;;0.40;;
10432;SDS011;5263;48.680;9.004;2024-03-23T08:59:25;1.57;;;0.47;;
10432;SDS011;5263;48.680;9.004;2024-03-23T09:01:50;3.67;;;0.60;;
10432;SDS011;5263;48.680;9.004;2024-03-23T09:04:16;2.17;;;0.80;;
10432;SDS011;5263;48.680;9.004;2024-03-23T09:06:44;3.03;;;0.90;;
10432;SDS011;5263;48.680;9.004;2024-03-23T09:09:10;3.50;;;1.00;;
10432;SDS011;5263;48.680;9.004;2024-03-23T09:11:35;2.53;;;1.10;;
10432;SDS011;5263;48.680;9.004;2024-03-23T09:14:02;2.97;;;1.20;;
10432;SDS011;5263;48.680;9.004;2024-03-23T09:16:28;3.53;;;1.23;;
10432;SDS011;5263;48.680;9.004;2024-03-23T09:18:54;1.83;;;0.90;;
10432;SDS011;5263;48.680;9.004;2024-03-23T09:21:19;2.30;;;1.17;;
10432;SDS011;5263;48.680;9.004;2024-03-23T09:23:45;3.50;;;1.13;;
10432;SDS011;5263;48.680;9.004;2024-03-23T09:26:11;3.50;;;1.57;;
10432;SDS011;5263;48.680;9.004;2024-03-23T09:28:36;2.93;;;1.27;;
10432;SDS011;5263;48.680;9.004;2024-03-23T09:31:02;3.50;;;1.47;;
10432;SDS011;5263;48.680;9.004;2024-03-23T09:33:29;5.17;;;1.27;;
10432;SDS011;5263;48.680;9.004;2024-03-23T09:35:54;6.73;;;1.67;;
10432;SDS011;5263;48.680;9.004;2024-03-23T09:38:21;6.23;;;1.53;;
10432;SDS011;5263;48.680;9.004;2024-03-23T09:40:47;5.30;;;1.53;;
10432;SDS011;5263;48.680;9.004;2024-03-23T09:43:15;2.97;;;1.87;;
10432;SDS011;5263;48.680;9.004;2024-03-23T09:45:40;6.67;;;1.37;;
10432;SDS011;5263;48.680;9.004;2024-03-23T09:48:08;8.53;;;1.70;;
10432;SDS011;5263;48.680;9.004;2024-03-23T09:50:39;3.07;;;1.50;;
10432;SDS011;5263;48.680;9.004;2024-03-23T09:53:07;4.17;;;1.43;;
10432;SDS011;5263;48.680;9.004;2024-03-23T09:55:34;4.93;;;1.50;;
10432;SDS011;5263;48.680;9.004;2024-03-23T09:58:03;3.77;;;1.90;;
10432;SDS011;5263;48.680;9.004;2024-03-23T10:00:33;3.53;;;0.93;;
10432;SDS011;5263;48.680;9.004;2024-03-23T10:02:59;1.80;;;1.07;;
10432;SDS011;5263;48.680;9.004;2024-03-23T10:05:28;3.43;;;1.33;;
10432;SDS011;5263;48.680;9.004;2024-03-23T10:07:57;3.67;;;1.10;;
10432;SDS011;5263;48.680;9.004;2024-03-23T10:10:22;4.20;;;1.33;;
10432;SDS011;5263;48.680;9.004;2024-03-23T10:12:50;4.77;;;1.93;;
10432;SDS011;5263;48.680;9.004;2024-03-23T10:15:20;3.43;;;1.10;;
10432;SDS011;5263;48.680;9.004;2024-03-23T10:17:46;3.63;;;1.27;;
10432;SDS011;5263;48.680;9.004;2024-03-23T10:20:12;4.30;;;1.40;;
10432;SDS011;5263;48.680;9.004;2024-03-23T10:22:38;3.53;;;1.30;;
10432;SDS011;5263;48.680;9.004;2024-03-23T10:25:08;4.40;;;1.33;;
10432;SDS011;5263;48.680;9.004;2024-03-23T10:27:34;2.90;;;1.00;;
10432;SDS011;5263;48.680;9.004;2024-03-23T10:30:07;9.70;;;1.10;;
10432;SDS011;5263;48.680;9.004;2024-03-23T10:32:37;5.47;;;1.33;;
10432;SDS011;5263;48.680;9.004;2024-03-23T10:35:16;5.73;;;1.30;;
10432;SDS011;5263;48.680;9.004;2024-03-23T10:37:49;11.83;;;1.87;;
10432;SDS011;5263;48.680;9.004;2024-03-23T10:40:16;2.07;;;1.43;;
10432;SDS011;5263;48.680;9.004;2024-03-23T10:42:45;5.57;;;1.53;;
10432;SDS011;5263;48.680;9.004;2024-03-23T10:45:12;5.47;;;1.33;;
10432;SDS011;5263;48.680;9.004;2024-03-23T10:47:37;2.17;;;1.17;;
10432;SDS011;5263;48.680;9.004;2024-03-23T10:50:03;3.17;;;0.60;;
10432;SDS011;5263;48.680;9.004;2024-03-23T10:52:31;1.57;;;1.03;;
10432;SDS011;5263;48.680;9.004;2024-03-23T10:54:57;3.73;;;1.03;;
10432;SDS011;5263;48.680;9.004;2024-03-23T10:57:34;1.20;;;0.60;;
10432;SDS011;5263;48.680;9.004;2024-03-23T11:00:10;6.50;;;0.90;;
10432;SDS011;5263;48.680;9.004;2024-03-23T11:02:37;5.10;;;1.07;;
10432;SDS011;5263;48.680;9.004;2024-03-23T11:05:27;6.07;;;1.17;;
10432;SDS011;5263;48.680;9.004;2024-03-23T11:07:52;5.00;;;1.33;;
10432;SDS011;5263;48.680;9.004;2024-03-23T11:10:25;5.33;;;1.43;;
10432;SDS011;5263;48.680;9.004;2024-03-23T11:12:53;4.30;;;1.20;;
10432;SDS011;5263;48.680;9.004;2024-03-23T11:15:19;9.17;;;1.30;;
10432;SDS011;5263;48.680;9.004;2024-03-23T11:18:06;2.63;;;0.90;;
10432;SDS011;5263;48.680;9.004;2024-03-23T11:20:34;4.30;;;0.73;;
10432;SDS011;5263;48.680;9.004;2024-03-23T11:23:00;3.07;;;1.00;;
10432;SDS011;5263;48.680;9.004;2024-03-23T11:25:26;1.73;;;0.77;;
10432;SDS011;5263;48.680;9.004;2024-03-23T11:30:26;2.30;;;0.70;;
10432;SDS011;5263;48.680;9.004;2024-03-23T11:32:54;1.23;;;0.40;;
10432;SDS011;5263;48.680;9.004;2024-03-23T11:35:24;1.53;;;0.70;;
10432;SDS011;5263;48.680;9.004;2024-03-23T11:43:10;3.47;;;0.90;;
10432;SDS011;5263;48.680;9.004;2024-03-23T11:48:08;1.70;;;0.50;;
10432;SDS011;5263;48.680;9.004;2024-03-23T11:50:38;2.00;;;0.40;;
10432;SDS011;5263;48.680;9.004;2024-03-23T11:53:13;4.10;;;0.50;;
10432;SDS011;5263;48.680;9.004;2024-03-23T11:55:46;1.33;;;0.47;;
10432;SDS011;5263;48.680;9.004;2024-03-23T11:58:17;1.23;;;0.50;;
10432;SDS011;5263;48.680;9.004;2024-03-23T12:00:50;6.87;;;0.40;;
10432;SDS011;5263;48.680;9.004;2024-03-23T12:03:24;3.70;;;0.57;;
10432;SDS011;5263;48.680;9.004;2024-03-23T12:05:51;5.27;;;0.70;;
10432;SDS011;5263;48.680;9.004;2024-03-23T12:08:22;3.33;;;0.60;;
10432;SDS011;5263;48.680;9.004;2024-03-23T12:11:10;3.57;;;0.90;;
10432;SDS011;5263;48.680;9.004;2024-03-23T12:13:37;4.03;;;0.53;;
10432;SDS011;5263;48.680;9.004;2024-03-23T12:16:10;4.17;;;1.07;;
10432;SDS011;5263;48.680;9.004;2024-03-23T12:18:37;2.40;;;0.60;;
10432;SDS011;5263;48.680;9.004;2024-03-23T12:21:05;3.63;;;0.53;;
10432;SDS011;5263;48.680;9.004;2024-03-23T12:23:30;3.10;;;0.80;;
10432;SDS011;5263;48.680;9.004;2024-03-23T12:25:57;5.23;;;1.17;;
10432;SDS011;5263;48.680;9.004;2024-03-23T12:28:22;6.30;;;0.83;;
10432;SDS011;5263;48.680;9.004;2024-03-23T12:30:48;11.60;;;0.97;;
10432;SDS011;5263;48.680;9.004;2024-03-23T12:33:14;2.10;;;0.67;;
10432;SDS011;5263;48.680;9.004;2024-03-23T12:35:39;6.43;;;1.13;;
10432;SDS011;5263;48.680;9.004;2024-03-23T12:38:05;7.27;;;1.30;;
10432;SDS011;5263;48.680;9.004;2024-03-23T12:40:30;6.33;;;1.23;;
10432;SDS011;5263;48.680;9.004;2024-03-23T12:42:56;2.43;;;0.80;;
10432;SDS011;5263;48.680;9.004;2024-03-23T12:45:22;5.60;;;1.17;;
10432;SDS011;5263;48.680;9.004;2024-03-23T12:47:47;2.57;;;1.03;;
10432;SDS011;5263;48.680;9.004;2024-03-23T12:50:13;6.37;;;1.00;;
10432;SDS011;5263;48.680;9.004;2024-03-23T12:52:39;5.03;;;1.20;;
10432;SDS011;5263;48.680;9.004;2024-03-23T12:55:04;3.60;;;1.17;;
10432;SDS011;5263;48.680;9.004;2024-03-23T12:57:30;4.97;;;1.10;;
10432;SDS011;5263;48.680;9.004;2024-03-23T12:59:57;3.77;;;1.37;;
10432;SDS011;5263;48.680;9.004;2024-03-23T13:02:22;5.40;;;1.10;;
10432;SDS011;5263;48.680;9.004;2024-03-23T13:04:54;4.53;;;1.00;;
10432;SDS011;5263;48.680;9.004;2024-03-23T13:07:21;4.67;;;1.00;;
10432;SDS011;5263;48.680;9.004;2024-03-23T13:09:51;1.07;;;0.50;;
10432;SDS011;5263;48.680;9.004;2024-03-23T13:12:18;1.80;;;0.30;;
10432;SDS011;5263;48.680;9.004;2024-03-23T13:14:46;2.90;;;0.40;;
10432;SDS011;5263;48.680;9.004;2024-03-23T13:17:12;1.10;;;0.20;;
10432;SDS011;5263;48.680;9.004;2024-03-23T13:19:38;2.53;;;0.33;;
10432;SDS011;5263;48.680;9.004;2024-03-23T13:22:04;0.60;;;0.20;;
10432;SDS011;5263;48.680;9.004;2024-03-23T13:24:30;0.23;;;0.10;;
10432;SDS011;5263;48.680;9.004;2024-03-23T13:26:56;0.33;;;0.20;;
10432;SDS011;5263;48.680;9.004;2024-03-23T13:29:22;4.43;;;0.30;;
10432;SDS011;5263;48.680;9.004;2024-03-23T13:31:49;0.80;;;0.20;;
10432;SDS011;5263;48.680;9.004;2024-03-23T13:34:16;0.20;;;0.20;;
10432;SDS011;5263;48.680;9.004;2024-03-23T13:36:43;0.70;;;0.20;;
10432;SDS011;5263;48.680;9.004;2024-03-23T13:39:12;1.80;;;0.30;;
10432;SDS011;5263;48.680;9.004;2024-03-23T13:41:43;0.93;;;0.40;;
10432;SDS011;5263;48.680;9.004;2024-03-23T13:44:12;6.17;;;0.50;;
10432;SDS011;5263;48.680;9.004;2024-03-23T13:46:39;3.87;;;0.60;;
10432;SDS011;5263;48.680;9.004;2024-03-23T13:51:54;3.00;;;0.40;;
10432;SDS011;5263;48.680;9.004;2024-03-23T13:54:20;1.33;;;0.50;;
10432;SDS011;5263;48.680;9.004;2024-03-23T13:56:53;3.00;;;0.57;;
10432;SDS011;5263;48.680;9.004;2024-03-23T13:59:20;0.67;;;0.40;;
10432;SDS011;5263;48.680;9.004;2024-03-23T14:01:48;4.20;;;0.53;;
10432;SDS011;5263;48.680;9.004;2024-03-23T14:04:14;1.73;;;0.40;;
10432;SDS011;5263;48.680;9.004;2024-03-23T14:06:41;1.33;;;0.40;;
10432;SDS011;5263;48.680;9.004;2024-03-23T14:09:07;1.63;;;0.30;;
10432;SDS011;5263;48.680;9.004;2024-03-23T14:11:34;0.37;;;0.37;;
10432;SDS011;5263;48.680;9.004;2024-03-23T14:14:01;2.40;;;0.30;;
10432;SDS011;5263;48.680;9.004;2024-03-23T14:16:26;1.77;;;0.57;;
10432;SDS011;5263;48.680;9.004;2024-03-23T14:18:52;1.20;;;0.33;;
10432;SDS011;5263;48.680;9.004;2024-03-23T14:21:18;1.00;;;0.37;;
10432;SDS011;5263;48.680;9.004;2024-03-23T14:23:44;3.10;;;0.20;;
10432;SDS011;5263;48.680;9.004;2024-03-23T14:26:09;1.07;;;0.40;;
10432;SDS011;5263;48.680;9.004;2024-03-23T14:28:35;3.23;;;1.00;;
10432;SDS011;5263;48.680;9.004;2024-03-23T14:31:00;1.30;;;0.33;;
10432;SDS011;5263;48.680;9.004;2024-03-23T14:33:28;1.03;;;0.30;;
10432;SDS011;5263;48.680;9.004;2024-03-23T14:35:54;0.60;;;0.20;;
10432;SDS011;5263;48.680;9.004;2024-03-23T14:38:23;2.57;;;0.50;;
10432;SDS011;5263;48.680;9.004;2024-03-23T14:40:49;3.97;;;0.50;;
10432;SDS011;5263;48.680;9.004;2024-03-23T14:43:16;3.37;;;0.60;;
10432;SDS011;5263;48.680;9.004;2024-03-23T14:45:49;1.90;;;0.40;;
10432;SDS011;5263;48.680;9.004;2024-03-23T14:48:31;3.23;;;0.60;;
10432;SDS011;5263;48.680;9.004;2024-03-23T14:50:58;2.60;;;0.47;;
10432;SDS011;5263;48.680;9.004;2024-03-23T14:53:24;1.80;;;0.50;;
10432;SDS011;5263;48.680;9.004;2024-03-23T14:55:53;2.77;;;0.50;;
10432;SDS011;5263;48.680;9.004;2024-03-23T14:58:19;0.73;;;0.20;;
10432;SDS011;5263;48.680;9.004;2024-03-23T15:00:45;2.60;;;0.40;;
10432;SDS011;5263;48.680;9.004;2024-03-23T15:03:10;3.57;;;0.23;;
10432;SDS011;5263;48.680;9.004;2024-03-23T15:05:36;0.80;;;0.20;;
10432;SDS011;5263;48.680;9.004;2024-03-23T15:08:02;1.50;;;0.30;;
10432;SDS011;5263;48.680;9.004;2024-03-23T15:10:28;0.30;;;0.30;;
10432;SDS011;5263;48.680;9.004;2024-03-23T15:12:53;1.10;;;0.20;;
10432;SDS011;5263;48.680;9.004;2024-03-23T15:15:19;1.80;;;0.30;;
10432;SDS011;5263;48.680;9.004;2024-03-23T15:17:44;1.13;;;0.20;;
10432;SDS011;5263;48.680;9.004;2024-03-23T15:20:10;2.53;;;0.27;;
10432;SDS011;5263;48.680;9.004;2024-03-23T15:22:37;0.83;;;0.20;;
10432;SDS011;5263;48.680;9.004;2024-03-23T15:25:02;2.07;;;0.30;;
10432;SDS011;5263;48.680;9.004;2024-03-23T15:27:28;2.17;;;0.30;;
10432;SDS011;5263;48.680;9.004;2024-03-23T15:29:55;2.00;;;0.20;;
10432;SDS011;5263;48.680;9.004;2024-03-23T15:32:22;1.07;;;0.30;;
10432;SDS011;5263;48.680;9.004;2024-03-23T15:34:48;1.17;;;0.30;;
10432;SDS011;5263;48.680;9.004;2024-03-23T15:37:13;0.60;;;0.60;;
10432;SDS011;5263;48.680;9.004;2024-03-23T15:39:39;0.30;;;0.20;;
10432;SDS011;5263;48.680;9.004;2024-03-23T15:42:06;2.37;;;0.70;;
10432;SDS011;5263;48.680;9.004;2024-03-23T15:44:32;0.43;;;0.37;;
10432;SDS011;5263;48.680;9.004;2024-03-23T15:46:58;0.60;;;0.20;;
10432;SDS011;5263;48.680;9.004;2024-03-23T15:49:24;2.20;;;0.40;;
10432;SDS011;5263;48.680;9.004;2024-03-23T15:51:49;3.07;;;0.40;;
10432;SDS011;5263;48.680;9.004;2024-03-23T15:54:15;1.03;;;0.23;;
10432;SDS011;5263;48.680;9.004;2024-03-23T15:56:40;0.13;;;0.10;;
10432;SDS011;5263;48.680;9.004;2024-03-23T15:59:06;1.33;;;0.30;;
10432;SDS011;5263;48.680;9.004;2024-03-23T16:01:32;0.63;;;0.20;;
10432;SDS011;5263;48.680;9.004;2024-03-23T16:04:01;2.07;;;0.20;;